createdAt,value
2022-10-17T00:02:44.438Z,4.70
2022-10-17T00:05:17.781Z,7.95
2022-10-17T00:07:50.947Z,4.80
2022-10-17T00:10:24.855Z,4.62
2022-10-17T00:12:57.696Z,4.97
2022-10-17T00:15:31.412Z,5.07
2022-10-17T00:18:05.709Z,4.47
2022-10-17T00:20:40.356Z,4.62
2022-10-17T00:23:14.217Z,4.80
2022-10-17T00:25:49.062Z,5.33
2022-10-17T00:28:21.910Z,5.22
2022-10-17T00:33:37.290Z,5.15
2022-10-17T00:36:15.220Z,4.97
2022-10-17T00:38:51.484Z,5.25
2022-10-17T00:41:29.085Z,5.72
2022-10-17T00:44:28.796Z,7.42
2022-10-17T00:47:07.464Z,7.95
2022-10-17T00:49:41.398Z,7.90
2022-10-17T00:52:21.553Z,6.30
2022-10-17T00:55:02.036Z,6.20
2022-10-17T00:57:35.260Z,5.67
2022-10-17T01:00:11.524Z,6.08
2022-10-17T01:02:45.765Z,5.60
2022-10-17T01:05:19.267Z,5.58
2022-10-17T01:07:53.611Z,6.00
2022-10-17T01:10:32.709Z,5.70
2022-10-17T01:13:18.849Z,5.35
2022-10-17T01:16:09.789Z,6.35
2022-10-17T01:18:57.149Z,6.78
2022-10-17T01:21:52.900Z,6.30
2022-10-17T01:25:01.731Z,6.80
2022-10-17T01:27:40.373Z,7.08
2022-10-17T01:31:04.602Z,7.22
2022-10-17T01:34:12.964Z,5.92
2022-10-17T01:37:09.131Z,7.72
2022-10-17T01:39:52.472Z,6.97
2022-10-17T01:42:30.732Z,8.50
2022-10-17T01:45:19.748Z,7.50
2022-10-17T01:47:54.864Z,7.00
2022-10-17T01:50:39.514Z,6.70
2022-10-17T01:53:23.760Z,6.62
2022-10-17T01:55:58.813Z,5.87
2022-10-17T01:58:48.372Z,8.38
2022-10-17T02:01:23.595Z,7.05
2022-10-17T02:03:59.208Z,7.65
2022-10-17T02:06:38.459Z,7.78
2022-10-17T02:09:28.561Z,10.40
2022-10-17T02:12:25.277Z,6.25
2022-10-17T02:15:37.895Z,5.60
2022-10-17T02:18:35.376Z,5.75
2022-10-17T02:21:40.912Z,5.55
2022-10-17T02:24:38.062Z,7.07
2022-10-17T02:27:52.041Z,6.15
2022-10-17T02:30:56.739Z,7.47
2022-10-17T02:33:34.872Z,7.70
2022-10-17T02:36:12.822Z,6.50
2022-10-17T02:38:47.741Z,7.40
2022-10-17T02:41:21.747Z,6.30
2022-10-17T02:43:58.784Z,7.08
2022-10-17T02:46:31.359Z,6.65
2022-10-17T02:49:20.678Z,6.90
2022-10-17T02:52:07.055Z,6.92
2022-10-17T02:55:02.212Z,6.85
2022-10-17T02:57:45.642Z,6.20
2022-10-17T03:00:19.755Z,6.80
2022-10-17T03:05:30.867Z,7.17
2022-10-17T03:08:04.457Z,7.50
2022-10-17T03:10:37.946Z,7.30
2022-10-17T03:13:11.563Z,8.00
2022-10-17T03:15:45.969Z,8.68
2022-10-17T03:18:19.577Z,10.60
2022-10-17T03:20:53.477Z,8.03
2022-10-17T03:23:26.664Z,7.83
2022-10-17T03:26:02.312Z,9.25
2022-10-17T03:28:36.003Z,7.45
2022-10-17T03:33:44.577Z,7.17
2022-10-17T03:36:19.906Z,8.28
2022-10-17T03:38:55.675Z,8.90
2022-10-17T03:41:28.903Z,7.60
2022-10-17T03:44:01.888Z,7.40
2022-10-17T03:46:34.961Z,8.05
2022-10-17T03:49:10.965Z,7.97
2022-10-17T03:51:45.590Z,8.85
2022-10-17T03:54:20.073Z,9.45
2022-10-17T03:56:53.656Z,10.10
2022-10-17T03:59:27.489Z,9.98
2022-10-17T04:02:02.007Z,8.85
2022-10-17T04:04:35.669Z,9.88
2022-10-17T04:07:08.811Z,11.90
2022-10-17T04:09:44.241Z,10.60
2022-10-17T04:12:19.338Z,12.33
2022-10-17T04:14:52.377Z,14.27
2022-10-17T04:19:59.900Z,13.48
2022-10-17T04:25:06.941Z,9.75
2022-10-17T04:27:41.421Z,9.80
2022-10-17T04:30:16.360Z,11.03
2022-10-17T04:32:49.667Z,12.28
2022-10-17T04:35:25.430Z,12.55
2022-10-17T04:38:00.218Z,11.85
2022-10-17T04:40:33.389Z,11.80
2022-10-17T04:43:06.354Z,11.18
2022-10-17T04:45:40.933Z,10.48
2022-10-17T04:48:13.955Z,9.73
2022-10-17T04:51:11.323Z,8.80
2022-10-17T04:53:46.681Z,9.08
2022-10-17T04:56:23.418Z,10.00
2022-10-17T04:58:57.805Z,9.13
2022-10-17T05:01:30.938Z,8.23
2022-10-17T05:04:04.355Z,9.15
2022-10-17T05:06:39.949Z,9.83
2022-10-17T05:09:24.514Z,10.28
2022-10-17T05:11:57.758Z,9.28
2022-10-17T05:17:05.360Z,9.38
2022-10-17T05:19:38.184Z,8.73
2022-10-17T05:22:13.235Z,9.30
2022-10-17T05:24:47.383Z,10.80
2022-10-17T05:27:20.609Z,10.28
2022-10-17T05:29:54.540Z,10.00
2022-10-17T05:32:29.401Z,10.18
2022-10-17T05:35:05.031Z,8.30
2022-10-17T05:37:38.616Z,9.50
2022-10-17T05:40:12.895Z,9.13
2022-10-17T05:42:49.918Z,10.08
2022-10-17T05:45:23.876Z,8.60
2022-10-17T05:47:56.973Z,9.15
2022-10-17T05:50:31.075Z,9.63
2022-10-17T05:53:05.589Z,9.33
2022-10-17T05:55:40.454Z,10.58
2022-10-17T05:58:21.969Z,9.50
2022-10-17T06:00:51.291Z,8.78
2022-10-17T06:03:24.055Z,9.98
2022-10-17T06:05:56.946Z,12.75
2022-10-17T06:08:29.810Z,10.53
2022-10-17T06:11:06.137Z,9.83
2022-10-17T06:13:40.050Z,9.15
2022-10-17T06:16:14.629Z,10.98
2022-10-17T06:21:27.990Z,8.98
2022-10-17T06:24:11.573Z,9.33
2022-10-17T06:26:48.008Z,9.08
2022-10-17T06:29:22.842Z,8.63
2022-10-17T06:31:58.988Z,7.92
2022-10-17T06:34:32.629Z,8.28
2022-10-17T06:37:05.887Z,7.28
2022-10-17T06:39:40.683Z,7.90
2022-10-17T06:42:16.441Z,8.00
2022-10-17T06:44:54.424Z,7.70
2022-10-17T06:47:45.334Z,7.95
2022-10-17T06:50:38.891Z,7.92
2022-10-17T06:53:25.564Z,6.72
2022-10-17T06:56:19.656Z,7.70
2022-10-17T06:58:53.247Z,7.90
2022-10-17T07:01:28.981Z,7.90
2022-10-17T07:04:04.320Z,7.47
2022-10-17T07:06:39.966Z,7.25
2022-10-17T07:09:17.435Z,9.45
2022-10-17T07:11:50.443Z,9.58
2022-10-17T07:14:23.781Z,12.10
2022-10-17T07:16:58.907Z,9.63
2022-10-17T07:19:34.498Z,8.48
2022-10-17T07:22:07.890Z,8.55
2022-10-17T07:24:42.503Z,8.20
2022-10-17T07:27:19.763Z,7.55
2022-10-17T07:29:52.957Z,6.67
2022-10-17T07:32:40.292Z,6.50
2022-10-17T07:35:15.219Z,5.95
2022-10-17T07:37:48.391Z,5.37
2022-10-17T07:40:22.998Z,4.12
2022-10-17T07:42:58.351Z,6.22
2022-10-17T07:45:33.123Z,5.58
2022-10-17T07:48:06.997Z,5.03
2022-10-17T07:50:41.016Z,4.95
2022-10-17T07:53:14.099Z,4.50
2022-10-17T07:55:48.421Z,5.85
2022-10-17T07:58:21.818Z,6.53
2022-10-17T08:00:54.876Z,6.47
2022-10-17T08:03:27.654Z,6.12
2022-10-17T08:06:02.271Z,7.10
2022-10-17T08:10:11.530Z,5.25
2022-10-17T08:12:44.515Z,5.78
2022-10-17T08:15:17.684Z,6.25
2022-10-17T08:17:50.592Z,5.80
2022-10-17T08:20:23.948Z,6.25
2022-10-17T08:22:57.777Z,6.25
2022-10-17T08:25:30.467Z,6.33
2022-10-17T08:28:04.149Z,7.65
2022-10-17T08:30:37.036Z,5.78
2022-10-17T08:33:10.473Z,10.72
2022-10-17T08:35:43.525Z,12.00
2022-10-17T08:38:20.077Z,8.75
2022-10-17T08:40:52.228Z,6.67
2022-10-17T08:43:45.125Z,6.83
2022-10-17T08:46:18.586Z,6.90
2022-10-17T08:48:52.765Z,9.58
2022-10-17T08:54:16.460Z,6.58
2022-10-17T08:56:52.569Z,6.40
2022-10-17T08:59:31.263Z,5.40
2022-10-17T09:02:33.595Z,5.42
2022-10-17T09:05:26.809Z,6.22
2022-10-17T09:08:26.989Z,5.00
2022-10-17T09:11:07.261Z,6.15
2022-10-17T09:14:09.586Z,4.85
2022-10-17T09:16:58.748Z,4.95
2022-10-17T09:19:44.196Z,5.08
2022-10-17T09:22:21.646Z,4.72
2022-10-17T09:25:04.029Z,6.20
2022-10-17T09:27:48.117Z,5.03
2022-10-17T09:30:45.177Z,5.00
2022-10-17T09:33:53.230Z,4.55
2022-10-17T09:36:09.496Z,3.80
2022-10-17T09:38:46.399Z,3.67
2022-10-17T09:44:05.328Z,4.12
2022-10-17T09:46:41.844Z,3.95
2022-10-17T09:49:25.358Z,3.83
2022-10-17T09:51:58.089Z,4.58
2022-10-17T09:54:43.498Z,3.35
2022-10-17T09:57:18.618Z,3.33
2022-10-17T10:00:05.033Z,3.87
2022-10-17T10:02:41.090Z,4.03
2022-10-17T10:05:21.984Z,4.70
2022-10-17T10:08:14.003Z,3.60
2022-10-17T10:10:47.689Z,3.20
2022-10-17T10:13:21.387Z,3.70
2022-10-17T10:15:54.887Z,3.77
2022-10-17T10:18:35.119Z,8.28
2022-10-17T10:21:22.850Z,7.15
2022-10-17T10:24:09.073Z,5.83
2022-10-17T10:26:51.205Z,11.63
2022-10-17T10:29:30.545Z,5.60
2022-10-17T10:32:36.242Z,9.05
2022-10-17T10:35:27.968Z,6.80
2022-10-17T10:38:05.390Z,4.72
2022-10-17T10:40:50.061Z,5.50
2022-10-17T10:43:39.060Z,4.17
2022-10-17T10:46:27.519Z,3.00
2022-10-17T10:49:03.606Z,3.00
2022-10-17T10:51:45.576Z,3.05
2022-10-17T10:54:31.225Z,3.17
2022-10-17T10:57:07.552Z,4.08
2022-10-17T10:59:58.631Z,3.72
2022-10-17T11:02:44.918Z,17.12
2022-10-17T11:05:57.676Z,8.78
2022-10-17T11:08:41.812Z,11.30
2022-10-17T11:11:34.057Z,6.25
2022-10-17T11:14:32.330Z,5.60
2022-10-17T11:17:29.724Z,4.20
2022-10-17T11:20:34.966Z,4.40
2022-10-17T11:23:21.892Z,3.10
2022-10-17T11:25:58.553Z,5.55
2022-10-17T11:28:32.395Z,3.85
2022-10-17T11:31:12.905Z,3.60
2022-10-17T11:33:53.555Z,3.33
2022-10-17T11:36:39.085Z,3.50
2022-10-17T11:39:39.304Z,4.08
2022-10-17T11:42:17.066Z,3.60
2022-10-17T11:44:52.165Z,3.67
2022-10-17T11:47:45.273Z,3.70
2022-10-17T11:53:22.823Z,3.20
2022-10-17T11:55:56.670Z,3.37
2022-10-17T11:58:52.378Z,2.90
2022-10-17T12:01:42.128Z,4.00
2022-10-17T12:04:51.667Z,3.58
2022-10-17T12:07:53.481Z,4.35
2022-10-17T12:10:40.202Z,3.77
2022-10-17T12:13:32.787Z,5.80
2022-10-17T12:16:28.483Z,3.10
2022-10-17T12:19:10.137Z,3.30
2022-10-17T12:22:06.155Z,2.80
2022-10-17T12:24:44.715Z,4.10
2022-10-17T12:27:47.660Z,3.08
2022-10-17T12:30:26.704Z,3.52
2022-10-17T12:33:35.535Z,3.65
2022-10-17T12:36:33.000Z,3.58
2022-10-17T12:39:12.180Z,6.55
2022-10-17T12:41:51.607Z,3.45
2022-10-17T12:44:31.008Z,3.40
2022-10-17T12:47:29.960Z,3.22
2022-10-17T12:50:03.813Z,3.45
2022-10-17T12:52:41.750Z,8.83
2022-10-17T12:55:21.290Z,9.05
2022-10-17T12:58:10.418Z,6.35
2022-10-17T13:01:22.711Z,6.05
2022-10-17T13:03:34.294Z,5.17
2022-10-17T13:06:08.941Z,5.62
2022-10-17T13:08:53.542Z,5.53
2022-10-17T13:11:30.641Z,4.67
2022-10-17T13:14:08.004Z,4.80
2022-10-17T13:16:44.758Z,4.47
2022-10-17T13:19:23.013Z,3.47
2022-10-17T13:22:07.189Z,4.12
2022-10-17T13:24:42.277Z,6.80
2022-10-17T13:27:32.527Z,7.28
2022-10-17T13:30:22.925Z,7.15
2022-10-17T13:32:58.121Z,7.10
2022-10-17T13:35:59.440Z,10.98
2022-10-17T13:38:16.091Z,12.40
2022-10-17T13:40:50.887Z,9.20
2022-10-17T13:43:25.514Z,9.08
2022-10-17T13:46:19.101Z,7.65
2022-10-17T13:48:40.450Z,8.50
2022-10-17T13:51:14.903Z,8.18
2022-10-17T13:53:47.818Z,9.70
2022-10-17T13:56:29.639Z,14.28
2022-10-17T13:59:06.753Z,5.87
2022-10-17T14:01:40.759Z,7.08
2022-10-17T14:04:19.795Z,8.03
2022-10-17T14:06:52.279Z,8.00
2022-10-17T14:09:28.582Z,11.70
2022-10-17T14:12:05.786Z,16.15
2022-10-17T14:15:05.086Z,7.72
2022-10-17T14:17:18.913Z,10.50
2022-10-17T14:22:40.695Z,13.38
2022-10-17T14:25:35.960Z,26.12
2022-10-17T14:28:18.775Z,29.15
2022-10-17T14:30:57.564Z,37.35
2022-10-17T14:33:34.623Z,40.10
2022-10-17T14:36:09.206Z,34.15
2022-10-17T14:38:48.517Z,29.77
2022-10-17T14:41:42.427Z,28.47
2022-10-17T14:44:07.165Z,28.62
2022-10-17T14:46:46.253Z,30.15
2022-10-17T14:49:25.171Z,36.13
2022-10-17T14:52:19.035Z,36.33
2022-10-17T14:54:52.961Z,36.15
2022-10-17T14:57:45.099Z,35.00
2022-10-17T15:00:20.496Z,35.10
2022-10-17T15:02:55.180Z,41.92
2022-10-17T15:05:28.336Z,32.05
2022-10-17T15:08:01.902Z,35.52
2022-10-17T15:10:39.781Z,36.38
2022-10-17T15:13:27.598Z,31.97
2022-10-17T15:15:50.755Z,39.23
2022-10-17T15:18:23.682Z,39.78
2022-10-17T15:21:04.985Z,37.55
2022-10-17T15:23:31.780Z,36.90
2022-10-17T15:26:05.129Z,45.08
2022-10-17T15:28:38.312Z,43.78
2022-10-17T15:31:17.645Z,40.67
2022-10-17T15:33:51.920Z,39.48
2022-10-17T15:36:30.833Z,40.67
2022-10-17T15:39:04.592Z,35.50
2022-10-17T15:41:38.557Z,43.00
2022-10-17T15:44:12.805Z,40.83
2022-10-17T15:46:46.806Z,39.60
2022-10-17T15:49:21.773Z,36.30
2022-10-17T15:51:55.582Z,32.23
2022-10-17T15:54:29.660Z,32.43
2022-10-17T15:57:03.031Z,31.48
2022-10-17T15:59:37.084Z,31.90
2022-10-17T16:02:21.006Z,26.12
2022-10-17T16:04:54.950Z,21.93
2022-10-17T16:07:28.716Z,23.25
2022-10-17T16:10:03.214Z,20.88
2022-10-17T16:12:38.374Z,20.17
2022-10-17T16:15:18.820Z,21.07
2022-10-17T16:17:53.878Z,21.55
2022-10-17T16:20:28.144Z,20.45
2022-10-17T16:23:03.593Z,20.90
2022-10-17T16:25:41.165Z,19.25
2022-10-17T16:28:14.222Z,14.20
2022-10-17T16:30:49.593Z,17.07
2022-10-17T16:33:24.290Z,18.55
2022-10-17T16:35:57.619Z,19.12
2022-10-17T16:38:31.397Z,17.40
2022-10-17T16:41:06.616Z,18.17
2022-10-17T16:43:41.054Z,19.52
2022-10-17T16:46:14.749Z,22.45
2022-10-17T16:48:48.692Z,18.37
2022-10-17T16:51:22.809Z,18.30
2022-10-17T16:53:57.595Z,17.77
2022-10-17T16:56:34.381Z,18.48
2022-10-17T16:59:09.174Z,18.37
2022-10-17T17:01:43.666Z,18.30
2022-10-17T17:04:19.451Z,17.90
2022-10-17T17:06:56.472Z,21.15
2022-10-17T17:09:35.681Z,22.58
2022-10-17T17:12:09.593Z,21.27
2022-10-17T17:14:45.948Z,23.30
2022-10-17T17:17:37.208Z,26.00
2022-10-17T17:19:56.572Z,26.80
2022-10-17T17:22:32.018Z,26.93
2022-10-17T17:25:05.664Z,28.57
2022-10-17T17:27:39.149Z,29.20
2022-10-17T17:30:13.143Z,29.23
2022-10-17T17:32:47.609Z,31.90
2022-10-17T17:35:21.436Z,34.07
2022-10-17T17:37:54.562Z,34.92
2022-10-17T17:40:29.287Z,33.37
2022-10-17T17:43:02.909Z,34.75
2022-10-17T17:45:37.198Z,33.75
2022-10-17T17:48:10.544Z,32.28
2022-10-17T17:53:20.854Z,33.23
2022-10-17T17:56:15.876Z,31.82
2022-10-17T17:58:55.438Z,32.58
2022-10-17T18:01:36.081Z,39.20
2022-10-17T18:04:10.653Z,34.63
2022-10-17T18:06:43.806Z,33.18
2022-10-17T18:09:16.792Z,30.57
2022-10-17T18:11:50.420Z,29.30
2022-10-17T18:14:24.216Z,32.65
2022-10-17T18:16:57.188Z,31.68
2022-10-17T18:19:33.190Z,33.23
2022-10-17T18:22:06.889Z,33.02
2022-10-17T18:24:40.131Z,32.20
2022-10-17T18:27:14.627Z,29.25
2022-10-17T18:29:47.846Z,26.68
2022-10-17T18:32:21.273Z,28.83
2022-10-17T18:34:54.216Z,29.45
2022-10-17T18:37:26.929Z,28.52
2022-10-17T18:39:59.928Z,30.40
2022-10-17T18:42:33.333Z,28.12
2022-10-17T18:45:08.906Z,28.62
2022-10-17T18:47:47.623Z,23.70
2022-10-17T18:50:22.359Z,23.50
2022-10-17T18:52:56.116Z,22.70
2022-10-17T18:55:29.131Z,25.17
2022-10-17T18:58:03.063Z,23.22
2022-10-17T19:00:35.948Z,23.20
2022-10-17T19:03:08.986Z,20.88
2022-10-17T19:05:44.457Z,20.17
2022-10-17T19:08:17.850Z,18.52
2022-10-17T19:10:50.711Z,21.23
2022-10-17T19:13:23.802Z,23.22
2022-10-17T19:15:57.290Z,20.08
2022-10-17T19:18:30.278Z,19.25
2022-10-17T19:21:09.611Z,18.42
2022-10-17T19:23:42.343Z,17.75
2022-10-17T19:26:15.721Z,17.25
2022-10-17T19:28:51.573Z,16.83
2022-10-17T19:31:27.437Z,16.97
2022-10-17T19:34:00.769Z,17.00
2022-10-17T19:36:36.106Z,16.00
2022-10-17T19:39:13.200Z,16.77
2022-10-17T19:41:48.962Z,17.37
2022-10-17T19:44:22.228Z,17.65
2022-10-17T19:46:55.214Z,16.50
2022-10-17T19:49:28.101Z,16.82
2022-10-17T19:52:01.384Z,14.90
2022-10-17T19:54:34.554Z,15.23
2022-10-17T19:57:10.453Z,14.63
2022-10-17T19:59:43.113Z,14.80
2022-10-17T20:02:15.894Z,15.25
2022-10-17T20:04:54.730Z,14.00
2022-10-17T20:07:23.741Z,11.68
2022-10-17T20:09:56.625Z,12.28
2022-10-17T20:12:29.694Z,11.78
2022-10-17T20:15:02.766Z,10.80
2022-10-17T20:17:36.282Z,11.57
2022-10-17T20:20:10.847Z,10.58
2022-10-17T20:22:44.208Z,10.65
2022-10-17T20:25:17.544Z,9.55
2022-10-17T20:27:51.662Z,9.50
2022-10-17T20:30:24.573Z,9.45
2022-10-17T20:32:58.090Z,10.93
2022-10-17T20:35:31.265Z,10.60
2022-10-17T20:38:03.953Z,10.25
2022-10-17T20:40:36.871Z,10.15
2022-10-17T20:43:12.227Z,10.00
2022-10-17T20:45:51.387Z,9.70
2022-10-17T20:48:20.813Z,8.98
2022-10-17T20:50:54.083Z,10.15
2022-10-17T20:53:42.039Z,10.00
2022-10-17T20:56:15.080Z,9.38
2022-10-17T20:58:51.166Z,9.40
2022-10-17T21:01:24.629Z,8.75
2022-10-17T21:04:06.179Z,8.23
2022-10-17T21:06:32.915Z,10.00
2022-10-17T21:09:07.596Z,9.97
2022-10-17T21:11:40.756Z,9.78
2022-10-17T21:14:16.272Z,9.33
2022-10-17T21:16:49.801Z,9.13
2022-10-17T21:19:24.139Z,8.05
2022-10-17T21:21:57.416Z,9.40
2022-10-17T21:24:30.480Z,9.88
2022-10-17T21:27:03.367Z,11.08
2022-10-17T21:29:36.403Z,11.18
2022-10-17T21:32:19.472Z,9.28
2022-10-17T21:34:44.785Z,11.22
2022-10-17T21:37:18.289Z,13.38
2022-10-17T21:39:51.638Z,18.67
2022-10-17T21:42:24.349Z,22.50
2022-10-17T21:44:57.223Z,29.72
2022-10-17T21:47:30.108Z,26.05
2022-10-17T21:50:02.791Z,22.73
2022-10-17T21:52:35.659Z,23.40
2022-10-17T21:55:09.481Z,22.30
2022-10-17T21:57:42.397Z,21.02
2022-10-17T22:00:16.731Z,19.67
2022-10-17T22:02:49.467Z,18.60
2022-10-17T22:05:22.527Z,18.02
2022-10-17T22:07:56.232Z,18.77
2022-10-17T22:10:29.032Z,17.05
2022-10-17T22:13:02.778Z,16.67
2022-10-17T22:15:36.518Z,16.87
2022-10-17T22:18:10.744Z,14.35
2022-10-17T22:20:43.589Z,15.58
2022-10-17T22:23:16.788Z,12.93
2022-10-17T22:25:57.326Z,13.53
2022-10-17T22:28:30.908Z,12.03
2022-10-17T22:31:04.488Z,11.78
2022-10-17T22:33:40.090Z,11.55
2022-10-17T22:36:13.903Z,12.58
2022-10-17T22:38:47.338Z,15.28
2022-10-17T22:41:20.075Z,24.65
2022-10-17T22:43:53.229Z,24.40
2022-10-17T22:46:26.293Z,22.85
2022-10-17T22:48:59.263Z,18.27
2022-10-17T22:51:32.124Z,16.32
2022-10-17T22:54:05.000Z,17.77
2022-10-17T22:56:39.019Z,19.75
2022-10-17T22:59:11.971Z,18.82
2022-10-17T23:01:45.633Z,18.32
2022-10-17T23:04:18.375Z,16.12
2022-10-17T23:06:51.151Z,15.63
2022-10-17T23:09:24.137Z,18.85
2022-10-17T23:11:58.480Z,17.57
2022-10-17T23:14:32.185Z,18.77
2022-10-17T23:17:06.571Z,17.20
2022-10-17T23:19:40.985Z,18.98
2022-10-17T23:22:13.761Z,16.02
2022-10-17T23:24:47.456Z,18.35
2022-10-17T23:27:20.177Z,16.87
2022-10-17T23:29:53.358Z,16.17
2022-10-17T23:32:26.192Z,15.65
2022-10-17T23:34:58.998Z,14.60
2022-10-17T23:37:31.899Z,16.02
2022-10-17T23:40:06.880Z,15.08
2022-10-17T23:42:39.715Z,13.22
2022-10-17T23:45:13.098Z,14.63
2022-10-17T23:47:46.481Z,13.60
2022-10-17T23:50:19.551Z,13.18
2022-10-17T23:52:52.901Z,12.82
2022-10-17T23:55:25.617Z,13.90
2022-10-17T23:57:58.884Z,13.70
